createdAt,value
2023-02-24T00:00:32.099Z,98163.43
2023-02-24T00:05:35.635Z,98157.59
2023-02-24T00:10:37.598Z,98153.98
2023-02-24T00:15:39.533Z,98148.98
2023-02-24T00:20:41.236Z,98144.52
2023-02-24T00:25:42.956Z,98139.68
2023-02-24T00:30:46.424Z,98137.92
2023-02-24T00:35:48.135Z,98129.55
2023-02-24T00:40:49.917Z,98126.28
2023-02-24T00:45:51.677Z,98119.72
2023-02-24T00:50:55.815Z,98114.41
2023-02-24T00:56:01.773Z,98109.43
2023-02-24T01:01:04.882Z,98100.56
2023-02-24T01:06:07.658Z,98096.87
2023-02-24T01:11:28.607Z,98086.31
2023-02-24T01:16:30.317Z,98080.37
2023-02-24T01:21:32.136Z,98073.40
2023-02-24T01:26:33.845Z,98071.59
2023-02-24T01:31:38.717Z,98063.79
2023-02-24T01:36:45.084Z,98057.04
2023-02-24T01:41:49.909Z,98047.71
2023-02-24T01:46:53.382Z,98045.19
2023-02-24T01:52:02.120Z,98039.42
2023-02-24T01:57:05.967Z,98033.67
2023-02-24T02:02:09.692Z,98026.38
2023-02-24T02:07:15.747Z,98020.27
2023-02-24T02:12:17.568Z,98018.25
2023-02-24T02:17:47.477Z,98012.00
2023-02-24T02:23:07.563Z,98013.20
2023-02-24T02:28:32.745Z,98008.97
2023-02-24T02:34:00.013Z,98003.02
2023-02-24T02:39:17.953Z,97999.61
2023-02-24T02:44:27.501Z,97997.37
2023-02-24T02:49:36.359Z,97991.02
2023-02-24T02:54:49.940Z,97987.04
2023-02-24T03:00:01.465Z,97981.16
2023-02-24T03:05:09.438Z,97978.63
2023-02-24T03:10:20.953Z,97978.27
2023-02-24T03:15:25.016Z,97975.36
2023-02-24T03:20:32.888Z,97970.80
2023-02-24T03:26:16.949Z,97968.30
2023-02-24T03:31:27.853Z,97964.98
2023-02-24T03:36:30.738Z,97962.87
2023-02-24T03:41:57.804Z,97961.61
2023-02-24T03:47:10.916Z,97959.14
2023-02-24T03:52:39.059Z,97950.05
2023-02-24T03:58:18.475Z,97938.61
2023-02-24T04:03:57.706Z,97923.05
2023-02-24T04:09:27.734Z,97923.54
2023-02-24T04:15:08.697Z,97921.98
2023-02-24T04:20:17.100Z,97913.75
2023-02-24T04:25:27.069Z,97906.58
2023-02-24T04:30:34.372Z,97899.90
2023-02-24T04:35:37.908Z,97895.42
2023-02-24T04:40:40.910Z,97892.98
2023-02-24T04:45:42.879Z,97880.33
2023-02-24T04:50:44.754Z,97875.35
2023-02-24T04:55:48.999Z,97865.09
2023-02-24T05:06:23.770Z,97848.39
2023-02-24T05:11:25.562Z,97834.38
2023-02-24T05:16:28.968Z,97831.29
2023-02-24T05:21:36.955Z,97829.23
2023-02-24T05:26:41.802Z,97831.11
2023-02-24T05:31:44.135Z,97822.27
2023-02-24T05:36:47.074Z,97820.56
2023-02-24T05:41:49.976Z,97811.02
2023-02-24T05:47:00.858Z,97814.42
2023-02-24T05:52:07.791Z,97820.39
2023-02-24T05:57:13.106Z,97828.48
2023-02-24T06:02:17.616Z,97831.82
2023-02-24T06:07:24.848Z,97824.56
2023-02-24T06:12:31.942Z,97826.86
2023-02-24T06:17:33.826Z,97829.48
2023-02-24T06:22:42.593Z,97822.00
2023-02-24T06:27:45.017Z,97817.94
2023-02-24T06:32:46.914Z,97812.13
2023-02-24T06:37:48.799Z,97806.99
2023-02-24T06:42:55.252Z,97804.57
2023-02-24T06:47:58.063Z,97798.20
2023-02-24T06:53:00.954Z,97797.82
2023-02-24T06:58:05.898Z,97801.20
2023-02-24T07:03:15.844Z,97799.17
2023-02-24T07:08:23.171Z,97800.86
2023-02-24T07:13:28.541Z,97800.70
2023-02-24T07:18:31.012Z,97801.41
2023-02-24T07:23:32.792Z,97792.90
2023-02-24T07:28:34.567Z,97787.80
2023-02-24T07:33:37.275Z,97787.23
2023-02-24T07:38:39.480Z,97782.52
2023-02-24T07:43:43.936Z,97783.95
2023-02-24T07:48:46.548Z,97778.05
2023-02-24T07:53:54.181Z,97772.10
2023-02-24T07:59:01.960Z,97767.66
2023-02-24T08:04:08.290Z,97760.73
2023-02-24T08:09:20.635Z,97757.45
2023-02-24T08:14:25.524Z,97750.00
2023-02-24T08:19:47.628Z,97748.29
2023-02-24T08:25:00.719Z,97747.59
2023-02-24T08:30:02.959Z,97741.05
2023-02-24T08:35:14.596Z,97739.70
2023-02-24T08:40:33.141Z,97733.38
2023-02-24T08:45:34.855Z,97724.15
2023-02-24T08:50:39.490Z,97716.83
2023-02-24T08:55:42.842Z,97718.37
2023-02-24T09:00:53.400Z,97711.55
2023-02-24T09:05:58.001Z,97714.16
2023-02-24T09:11:02.009Z,97708.40
2023-02-24T09:16:05.198Z,97704.02
2023-02-24T09:21:30.872Z,97703.06
2023-02-24T09:26:43.519Z,97691.14
2023-02-24T09:31:55.347Z,97681.77
2023-02-24T09:37:03.727Z,97676.21
2023-02-24T09:42:13.063Z,97665.98
2023-02-24T09:47:31.356Z,97673.67
2023-02-24T09:52:42.319Z,97670.92
2023-02-24T09:58:26.989Z,97659.77
2023-02-24T10:03:42.418Z,97652.17
2023-02-24T10:09:11.435Z,97648.48
2023-02-24T10:14:19.585Z,97641.56
2023-02-24T10:19:30.587Z,97632.41
2023-02-24T10:24:41.358Z,97623.50
2023-02-24T10:29:50.906Z,97623.78
2023-02-24T10:34:53.359Z,97604.64
2023-02-24T10:40:10.243Z,97572.70
2023-02-24T10:45:26.367Z,97556.78
2023-02-24T10:50:55.302Z,97571.98
2023-02-24T10:56:17.723Z,97573.40
2023-02-24T11:01:40.524Z,97562.61
2023-02-24T11:06:52.578Z,97555.73
2023-02-24T11:12:34.902Z,97553.21
2023-02-24T11:17:38.346Z,97537.27
2023-02-24T11:22:43.188Z,97522.92
2023-02-24T11:27:46.531Z,97501.55
2023-02-24T11:33:00.521Z,97478.89
2023-02-24T11:38:16.104Z,97472.52
2023-02-24T11:43:20.964Z,97469.80
2023-02-24T11:48:34.162Z,97476.84
2023-02-24T11:53:55.408Z,97475.63
2023-02-24T11:59:07.525Z,97467.40
2023-02-24T12:04:21.746Z,97458.35
2023-02-24T12:09:30.219Z,97453.41
2023-02-24T12:14:40.901Z,97440.39
2023-02-24T12:20:05.141Z,97439.23
2023-02-24T12:25:12.929Z,97432.87
2023-02-24T12:30:47.351Z,97419.54
2023-02-24T12:36:20.900Z,97414.20
2023-02-24T12:41:39.295Z,97402.05
2023-02-24T12:46:41.042Z,97395.13
2023-02-24T12:52:00.864Z,97385.56
2023-02-24T12:57:11.897Z,97379.67
2023-02-24T13:02:57.700Z,97371.38
2023-02-24T13:08:14.475Z,97362.71
2023-02-24T13:13:46.440Z,97353.20
2023-02-24T13:18:48.301Z,97348.07
2023-02-24T13:23:58.148Z,97335.68
2023-02-24T13:29:18.582Z,97324.48
2023-02-24T13:34:32.980Z,97320.86
2023-02-24T13:39:35.996Z,97312.96
2023-02-24T13:45:02.999Z,97307.55
2023-02-24T13:50:20.078Z,97315.43
2023-02-24T13:55:46.969Z,97312.29
2023-02-24T14:01:14.712Z,97302.40
2023-02-24T14:06:25.297Z,97295.67
2023-02-24T14:11:32.437Z,97292.20
2023-02-24T14:16:39.868Z,97294.52
2023-02-24T14:21:49.119Z,97285.58
2023-02-24T14:26:56.551Z,97281.52
2023-02-24T14:31:59.502Z,97267.95
2023-02-24T14:37:03.990Z,97254.45
2023-02-24T14:42:14.795Z,97247.73
2023-02-24T14:47:19.018Z,97235.77
2023-02-24T14:52:38.392Z,97221.60
2023-02-24T14:57:45.246Z,97220.03
2023-02-24T15:02:52.889Z,97205.48
2023-02-24T15:07:54.688Z,97195.55
2023-02-24T15:13:01.073Z,97192.43
2023-02-24T15:18:25.781Z,97183.91
2023-02-24T15:23:47.561Z,97182.52
2023-02-24T15:28:56.454Z,97172.59
2023-02-24T15:34:03.379Z,97162.43
2023-02-24T15:39:15.695Z,97153.41
2023-02-24T15:44:33.970Z,97148.71
2023-02-24T15:49:35.677Z,97149.46
2023-02-24T15:54:39.293Z,97145.55
2023-02-24T15:59:41.190Z,97142.87
2023-02-24T16:04:42.993Z,97141.74
2023-02-24T16:09:46.922Z,97136.83
2023-02-24T16:15:02.188Z,97129.17
2023-02-24T16:20:08.602Z,97122.36
2023-02-24T16:25:15.294Z,97119.65
2023-02-24T16:30:22.461Z,97125.18
2023-02-24T16:35:25.943Z,97138.35
2023-02-24T16:40:30.950Z,97140.17
2023-02-24T16:45:34.494Z,97141.31
2023-02-24T16:50:39.508Z,97143.55
2023-02-24T16:55:43.278Z,97130.70
2023-02-24T17:00:48.007Z,97123.11
2023-02-24T17:05:51.636Z,97100.29
2023-02-24T17:10:54.230Z,97108.33
2023-02-24T17:15:57.440Z,97106.11
2023-02-24T17:20:59.719Z,97105.77
2023-02-24T17:26:02.715Z,97101.30
2023-02-24T17:31:05.525Z,97107.06
2023-02-24T17:36:07.522Z,97102.77
2023-02-24T17:41:09.912Z,97100.58
2023-02-24T17:46:11.689Z,97092.90
2023-02-24T17:51:20.036Z,97089.86
2023-02-24T17:56:22.204Z,97085.29
2023-02-24T18:01:26.113Z,97079.30
2023-02-24T18:06:27.877Z,97062.29
2023-02-24T18:11:29.635Z,97055.82
2023-02-24T18:16:31.476Z,97053.77
2023-02-24T18:21:33.374Z,97045.76
2023-02-24T18:26:35.705Z,97032.48
2023-02-24T18:31:37.669Z,97025.10
2023-02-24T18:36:40.456Z,97024.58
2023-02-24T18:41:42.462Z,97020.14
2023-02-24T18:46:44.394Z,97016.05
2023-02-24T18:51:48.886Z,97007.02
2023-02-24T18:56:50.928Z,96988.98
2023-02-24T19:01:53.998Z,96975.51
2023-02-24T19:06:55.817Z,96967.52
2023-02-24T19:11:57.584Z,96961.05
2023-02-24T19:17:01.241Z,96951.50
2023-02-24T19:22:03.024Z,96947.42
2023-02-24T19:27:04.781Z,96942.98
2023-02-24T19:32:06.654Z,96932.10
2023-02-24T19:37:08.577Z,96924.60
2023-02-24T19:42:10.391Z,96909.11
2023-02-24T19:47:12.138Z,96902.48
2023-02-24T19:52:14.078Z,96896.18
2023-02-24T19:57:15.933Z,96889.00
2023-02-24T20:02:17.761Z,96884.05
2023-02-24T20:07:19.673Z,96871.60
2023-02-24T20:12:21.573Z,96860.17
2023-02-24T20:17:23.385Z,96852.68
2023-02-24T20:22:25.129Z,96840.40
2023-02-24T20:27:26.905Z,96833.41
2023-02-24T20:32:28.746Z,96824.69
2023-02-24T20:37:30.528Z,96821.27
2023-02-24T20:42:32.356Z,96822.60
2023-02-24T20:47:34.077Z,96824.29
2023-02-24T20:52:37.660Z,96824.61
2023-02-24T20:57:40.559Z,96831.60
2023-02-24T21:02:42.808Z,96818.61
2023-02-24T21:07:44.595Z,96783.64
2023-02-24T21:12:47.369Z,96777.84
2023-02-24T21:17:49.082Z,96778.21
2023-02-24T21:22:52.506Z,96763.91
2023-02-24T21:27:57.332Z,96754.53
2023-02-24T21:32:59.100Z,96757.44
2023-02-24T21:38:00.903Z,96753.70
2023-02-24T21:43:04.512Z,96748.23
2023-02-24T21:48:06.797Z,96732.60
2023-02-24T21:53:08.786Z,96727.14
2023-02-24T21:58:10.495Z,96714.20
2023-02-24T22:03:12.581Z,96707.20
2023-02-24T22:08:14.511Z,96709.09
2023-02-24T22:13:22.786Z,96702.59
2023-02-24T22:18:24.656Z,96712.94
2023-02-24T22:23:26.721Z,96719.56
2023-02-24T22:28:28.493Z,96722.43
2023-02-24T22:33:32.310Z,96721.12
2023-02-24T22:38:35.740Z,96716.10
2023-02-24T22:43:37.699Z,96710.35
2023-02-24T22:48:40.595Z,96700.49
2023-02-24T22:53:46.673Z,96692.46
2023-02-24T22:58:48.995Z,96686.98
2023-02-24T23:03:51.711Z,96691.10
2023-02-24T23:08:54.514Z,96687.55
2023-02-24T23:13:58.979Z,96686.17
2023-02-24T23:19:06.092Z,96697.25
2023-02-24T23:24:11.087Z,96702.27
2023-02-24T23:29:15.499Z,96703.71
2023-02-24T23:34:18.887Z,96702.59
2023-02-24T23:39:23.646Z,96689.19
2023-02-24T23:44:25.776Z,96693.30
2023-02-24T23:49:36.278Z,96690.61
2023-02-24T23:54:41.036Z,96685.67
2023-02-24T23:59:43.044Z,96671.40
